sensor_id;sensor_type;location;lat;lon;timestamp;P1;durP1;ratioP1;P2;durP2;ratioP2
76735;SDS011;70098;44.562;0.086;2024-02-14T00:12:11;15.10;;;5.50;;
76735;SDS011;70098;44.562;0.086;2024-02-14T00:27:30;7.77;;;4.80;;
76735;SDS011;70098;44.562;0.086;2024-02-14T00:42:48;7.20;;;4.80;;
76735;SDS011;70098;44.562;0.086;2024-02-14T00:58:08;10.30;;;5.17;;
76735;SDS011;70098;44.562;0.086;2024-02-14T01:13:28;10.30;;;6.30;;
76735;SDS011;70098;44.562;0.086;2024-02-14T01:28:47;12.20;;;8.00;;
76735;SDS011;70098;44.562;0.086;2024-02-14T01:44:06;12.63;;;8.27;;
76735;SDS011;70098;44.562;0.086;2024-02-14T01:59:25;13.33;;;8.53;;
76735;SDS011;70098;44.562;0.086;2024-02-14T02:14:45;11.07;;;8.30;;
76735;SDS011;70098;44.562;0.086;2024-02-14T02:30:05;16.80;;;9.90;;
76735;SDS011;70098;44.562;0.086;2024-02-14T02:45:23;18.73;;;10.47;;
76735;SDS011;70098;44.562;0.086;2024-02-14T03:00:43;19.13;;;10.90;;
76735;SDS011;70098;44.562;0.086;2024-02-14T03:16:03;15.40;;;10.43;;
76735;SDS011;70098;44.562;0.086;2024-02-14T03:31:22;18.17;;;10.30;;
76735;SDS011;70098;44.562;0.086;2024-02-14T03:46:40;15.17;;;8.87;;
76735;SDS011;70098;44.562;0.086;2024-02-14T04:02:00;15.97;;;9.50;;
76735;SDS011;70098;44.562;0.086;2024-02-14T04:17:20;16.10;;;9.83;;
76735;SDS011;70098;44.562;0.086;2024-02-14T04:32:39;27.87;;;9.87;;
76735;SDS011;70098;44.562;0.086;2024-02-14T04:47:59;16.77;;;10.67;;
76735;SDS011;70098;44.562;0.086;2024-02-14T05:03:19;15.23;;;9.60;;
76735;SDS011;70098;44.562;0.086;2024-02-14T05:18:38;18.63;;;10.27;;
76735;SDS011;70098;44.562;0.086;2024-02-14T05:33:59;15.63;;;9.50;;
76735;SDS011;70098;44.562;0.086;2024-02-14T05:49:19;17.40;;;9.37;;
76735;SDS011;70098;44.562;0.086;2024-02-14T06:04:38;14.90;;;9.63;;
76735;SDS011;70098;44.562;0.086;2024-02-14T06:19:58;13.93;;;9.13;;
76735;SDS011;70098;44.562;0.086;2024-02-14T06:35:17;16.50;;;9.73;;
76735;SDS011;70098;44.562;0.086;2024-02-14T06:50:35;19.03;;;10.20;;
76735;SDS011;70098;44.562;0.086;2024-02-14T07:05:54;14.97;;;9.50;;
76735;SDS011;70098;44.562;0.086;2024-02-14T07:21:14;17.27;;;9.13;;
76735;SDS011;70098;44.562;0.086;2024-02-14T07:36:34;15.53;;;8.40;;
76735;SDS011;70098;44.562;0.086;2024-02-14T07:51:55;12.20;;;7.13;;
76735;SDS011;70098;44.562;0.086;2024-02-14T08:07:16;15.03;;;8.30;;
76735;SDS011;70098;44.562;0.086;2024-02-14T08:22:36;9.60;;;6.33;;
76735;SDS011;70098;44.562;0.086;2024-02-14T08:37:59;5.00;;;3.90;;
76735;SDS011;70098;44.562;0.086;2024-02-14T08:53:20;11.03;;;5.10;;
76735;SDS011;70098;44.562;0.086;2024-02-14T09:08:40;7.30;;;4.07;;
76735;SDS011;70098;44.562;0.086;2024-02-14T09:24:01;6.97;;;3.63;;
76735;SDS011;70098;44.562;0.086;2024-02-14T09:39:21;7.47;;;4.50;;
76735;SDS011;70098;44.562;0.086;2024-02-14T09:54:40;6.73;;;3.83;;
76735;SDS011;70098;44.562;0.086;2024-02-14T10:10:05;8.33;;;5.03;;
76735;SDS011;70098;44.562;0.086;2024-02-14T10:25:18;5.47;;;4.03;;
76735;SDS011;70098;44.562;0.086;2024-02-14T10:40:38;5.27;;;3.27;;
76735;SDS011;70098;44.562;0.086;2024-02-14T10:55:58;4.60;;;1.93;;
76735;SDS011;70098;44.562;0.086;2024-02-14T11:11:19;5.37;;;1.80;;
76735;SDS011;70098;44.562;0.086;2024-02-14T11:26:39;2.33;;;1.03;;
76735;SDS011;70098;44.562;0.086;2024-02-14T11:42:00;2.47;;;1.60;;
76735;SDS011;70098;44.562;0.086;2024-02-14T11:57:18;2.70;;;1.53;;
76735;SDS011;70098;44.562;0.086;2024-02-14T12:12:37;6.83;;;1.60;;
76735;SDS011;70098;44.562;0.086;2024-02-14T12:27:57;1.60;;;1.30;;
76735;SDS011;70098;44.562;0.086;2024-02-14T12:43:17;4.60;;;2.13;;
76735;SDS011;70098;44.562;0.086;2024-02-14T12:58:37;3.47;;;1.70;;
76735;SDS011;70098;44.562;0.086;2024-02-14T13:13:56;3.27;;;1.50;;
76735;SDS011;70098;44.562;0.086;2024-02-14T13:29:14;4.77;;;1.33;;
76735;SDS011;70098;44.562;0.086;2024-02-14T13:44:31;2.40;;;1.30;;
76735;SDS011;70098;44.562;0.086;2024-02-14T13:59:50;2.50;;;1.67;;
76735;SDS011;70098;44.562;0.086;2024-02-14T14:15:09;2.20;;;1.70;;
76735;SDS011;70098;44.562;0.086;2024-02-14T14:30:28;2.57;;;1.10;;
76735;SDS011;70098;44.562;0.086;2024-02-14T14:45:48;2.97;;;1.50;;
76735;SDS011;70098;44.562;0.086;2024-02-14T15:01:08;4.77;;;2.60;;
76735;SDS011;70098;44.562;0.086;2024-02-14T15:16:27;7.10;;;2.97;;
76735;SDS011;70098;44.562;0.086;2024-02-14T15:31:46;2.87;;;1.87;;
76735;SDS011;70098;44.562;0.086;2024-02-14T15:47:05;3.03;;;1.93;;
76735;SDS011;70098;44.562;0.086;2024-02-14T16:02:24;6.23;;;2.90;;
76735;SDS011;70098;44.562;0.086;2024-02-14T16:17:44;1.90;;;1.60;;
76735;SDS011;70098;44.562;0.086;2024-02-14T16:33:03;1.70;;;1.57;;
76735;SDS011;70098;44.562;0.086;2024-02-14T16:48:22;2.63;;;1.53;;
76735;SDS011;70098;44.562;0.086;2024-02-14T17:03:42;2.60;;;1.63;;
76735;SDS011;70098;44.562;0.086;2024-02-14T17:19:00;5.20;;;1.97;;
76735;SDS011;70098;44.562;0.086;2024-02-14T17:34:19;4.17;;;1.70;;
76735;SDS011;70098;44.562;0.086;2024-02-14T17:49:38;1.97;;;1.17;;
76735;SDS011;70098;44.562;0.086;2024-02-14T18:04:56;3.33;;;1.87;;
76735;SDS011;70098;44.562;0.086;2024-02-14T18:20:15;2.60;;;1.30;;
76735;SDS011;70098;44.562;0.086;2024-02-14T18:35:34;2.47;;;1.70;;
76735;SDS011;70098;44.562;0.086;2024-02-14T18:50:54;3.27;;;1.83;;
76735;SDS011;70098;44.562;0.086;2024-02-14T19:06:14;3.77;;;2.10;;
76735;SDS011;70098;44.562;0.086;2024-02-14T19:21:34;2.57;;;1.80;;
76735;SDS011;70098;44.562;0.086;2024-02-14T19:36:53;4.27;;;2.00;;
76735;SDS011;70098;44.562;0.086;2024-02-14T19:52:13;3.53;;;2.10;;
76735;SDS011;70098;44.562;0.086;2024-02-14T20:07:33;4.00;;;1.70;;
76735;SDS011;70098;44.562;0.086;2024-02-14T20:22:52;3.60;;;2.10;;
76735;SDS011;70098;44.562;0.086;2024-02-14T20:38:12;2.37;;;1.73;;
76735;SDS011;70098;44.562;0.086;2024-02-14T20:53:32;3.13;;;1.50;;
76735;SDS011;70098;44.562;0.086;2024-02-14T21:08:51;2.83;;;1.93;;
76735;SDS011;70098;44.562;0.086;2024-02-14T21:24:11;1.70;;;1.23;;
76735;SDS011;70098;44.562;0.086;2024-02-14T21:39:31;7.60;;;1.90;;
76735;SDS011;70098;44.562;0.086;2024-02-14T21:54:50;5.90;;;2.00;;
76735;SDS011;70098;44.562;0.086;2024-02-14T22:10:10;4.60;;;1.93;;
76735;SDS011;70098;44.562;0.086;2024-02-14T22:25:29;5.77;;;2.37;;
76735;SDS011;70098;44.562;0.086;2024-02-14T22:40:48;2.93;;;2.13;;
76735;SDS011;70098;44.562;0.086;2024-02-14T22:56:07;3.77;;;2.07;;
76735;SDS011;70098;44.562;0.086;2024-02-14T23:11:27;2.90;;;1.60;;
76735;SDS011;70098;44.562;0.086;2024-02-14T23:26:47;2.87;;;1.17;;
76735;SDS011;70098;44.562;0.086;2024-02-14T23:42:06;5.83;;;1.63;;
76735;SDS011;70098;44.562;0.086;2024-02-14T23:57:25;2.60;;;1.40;;
